Time;durP1;ratioP1;P1;durP2;ratioP2;P2;SDS_P1;SDS_P2;PMS_P1;PMS_P2;Temp;Humidity;BMP_temperature;BMP_pressure;BME280_temperature;BME280_humidity;BME280_pressure;Samples;Min_cycle;Max_cycle;Signal;HPM_P1;HPM_P2
2022/08/19 10:52:49;;;;;;;1.77;1.00;;;23.60;75.10;;;;;;5015527;28;20045;-57
2022/08/19 10:58:00;;;;;;;0.65;0.50;;;23.70;73.80;;;;;;5034767;28;20317;-58
2022/08/19 11:00:26;;;;;;;0.77;0.60;;;23.80;73.40;;;;;;5032862;28;20492;-58
2022/08/19 11:02:52;;;;;;;1.30;0.87;;;23.90;72.50;;;;;;5033512;28;20025;-59
2022/08/19 11:05:18;;;;;;;2.47;0.93;;;24.00;72.70;;;;;;5033399;28;20079;-59
2022/08/19 11:07:45;;;;;;;2.67;1.17;;;24.10;71.00;;;;;;5032717;28;20263;-59
2022/08/19 11:10:13;;;;;;;2.85;0.60;;;24.20;71.70;;;;;;5030662;28;20041;-57
2022/08/19 11:12:40;;;;;;;0.40;0.40;;;24.30;70.20;;;;;;5030291;28;20022;-57
2022/08/19 11:15:08;;;;;;;;;;;24.30;70.50;;;;;;5033214;28;20032;-59
2022/08/19 11:17:35;;;;;;;4.00;0.80;;;24.40;70.30;;;;;;5032144;28;19911;-57
2022/08/19 11:20:04;;;;;;;0.82;0.82;;;24.50;69.80;;;;;;5030413;28;20123;-58
2022/08/19 11:22:30;;;;;;;2.85;0.70;;;24.70;68.80;;;;;;5031494;28;20048;-58
2022/08/19 11:24:55;;;;;;;1.03;0.80;;;24.80;70.20;;;;;;5031087;28;20029;-58
2022/08/19 11:27:21;;;;;;;1.47;0.90;;;24.90;70.40;;;;;;5032649;28;20511;-56
2022/08/19 11:29:47;;;;;;;1.27;0.87;;;25.00;70.10;;;;;;5032767;28;20021;-59
2022/08/19 11:32:13;;;;;;;2.13;0.70;;;25.10;69.50;;;;;;5031258;28;20053;-59
2022/08/19 11:34:39;;;;;;;2.20;0.80;;;25.10;66.90;;;;;;5031778;28;20025;-58
2022/08/19 11:37:05;;;;;;;1.75;0.70;;;25.30;66.50;;;;;;5030737;28;20021;-57
2022/08/19 11:39:33;;;;;;;0.73;0.52;;;25.50;67.10;;;;;;5030915;28;20047;-57
2022/08/19 11:42:02;;;;;;;2.20;1.23;;;25.60;65.20;;;;;;5030837;28;20112;-59
2022/08/19 11:44:30;;;;;;;1.88;0.90;;;25.80;66.10;;;;;;5032321;28;20026;-57
2022/08/19 11:46:56;;;;;;;1.05;0.70;;;25.60;70.40;;;;;;5032854;28;20403;-57
2022/08/19 11:49:22;;;;;;;1.93;1.10;;;25.90;65.30;;;;;;5032541;28;20041;-60
2022/08/19 11:51:50;;;;;;;1.75;0.73;;;25.90;63.30;;;;;;5030696;28;20034;-58
2022/08/19 11:54:17;;;;;;;1.48;1.10;;;25.80;63.60;;;;;;5032429;28;20413;-59
2022/08/19 11:56:43;;;;;;;1.67;1.10;;;25.90;71.50;;;;;;5032685;28;20124;-59
2022/08/19 11:59:10;;;;;;;1.83;1.23;;;25.80;66.40;;;;;;5032514;28;20033;-59
2022/08/19 12:01:36;;;;;;;1.67;1.52;;;25.80;66.40;;;;;;5032525;28;20384;-59
2022/08/19 12:04:04;;;;;;;1.52;1.20;;;26.00;67.40;;;;;;5032248;28;20053;-59
2022/08/19 12:06:34;;;;;;;1.40;1.23;;;25.90;66.80;;;;;;5032341;28;20113;-59
2022/08/19 12:09:04;;;;;;;2.65;1.30;;;26.00;66.50;;;;;;5032347;28;20052;-59
2022/08/19 12:11:31;;;;;;;1.90;1.70;;;26.10;66.30;;;;;;5032045;28;20029;-59
2022/08/19 12:13:56;;;;;;;1.65;1.50;;;26.00;66.70;;;;;;5031494;28;20060;-59
2022/08/19 12:16:27;;;;;;;3.00;1.70;;;26.00;67.00;;;;;;5032311;28;20075;-59
2022/08/19 12:18:54;;;;;;;3.28;1.70;;;26.00;67.30;;;;;;5031946;28;20495;-59
2022/08/19 12:21:28;;;;;;;3.58;2.08;;;26.10;68.40;;;;;;5030277;28;20025;-59
2022/08/19 12:23:55;;;;;;;4.47;1.98;;;26.20;67.00;;;;;;5032067;28;20491;-58
2022/08/19 12:26:21;;;;;;;2.97;1.83;;;26.30;66.40;;;;;;5032200;28;20022;-58
2022/08/19 12:28:48;;;;;;;4.05;2.20;;;26.40;64.40;;;;;;5030801;28;20103;-59
2022/08/19 12:31:14;;;;;;;2.30;2.08;;;26.40;66.30;;;;;;5031648;28;20037;-59
2022/08/19 12:33:41;;;;;;;;;;;26.70;65.90;;;;;;5032243;28;20022;-58
2022/08/19 12:36:09;;;;;;;2.53;2.03;;;26.90;65.00;;;;;;5032435;28;20317;-58
2022/08/19 12:38:36;;;;;;;4.15;2.17;;;27.10;65.30;;;;;;5031855;28;20455;-58
2022/08/19 12:41:05;;;;;;;2.05;1.77;;;27.00;63.60;;;;;;5031387;28;20032;-58
2022/08/19 12:43:31;;;;;;;4.80;2.50;;;27.10;63.90;;;;;;5030368;28;20037;-58
2022/08/19 12:45:57;;;;;;;3.87;2.70;;;27.30;64.10;;;;;;5031827;28;20434;-59
2022/08/19 12:48:22;;;;;;;5.47;1.97;;;27.40;62.40;;;;;;5030561;28;20025;-59
2022/08/19 12:50:48;;;;;;;5.00;2.20;;;27.30;63.00;;;;;;5031390;28;20610;-58
2022/08/19 12:53:15;;;;;;;5.67;2.30;;;27.30;64.30;;;;;;5031591;28;20087;-57
2022/08/19 12:55:42;;;;;;;3.47;2.47;;;27.30;62.20;;;;;;5031629;28;20049;-59
2022/08/19 12:58:08;;;;;;;2.45;1.98;;;27.40;62.20;;;;;;5031973;28;20030;-59
2022/08/19 13:00:34;;;;;;;2.80;2.08;;;27.50;62.00;;;;;;5030777;28;20075;-58
2022/08/19 13:03:00;;;;;;;2.17;1.40;;;27.80;61.60;;;;;;5031697;28;20025;-58
2022/08/19 13:05:30;;;;;;;1.90;1.00;;;28.00;58.30;;;;;;5030336;28;20033;-59
2022/08/19 13:07:59;;;;;;;4.70;1.92;;;28.10;57.60;;;;;;5030163;28;20116;-56
2022/08/19 13:10:34;;;;;;;3.90;2.17;;;27.90;57.20;;;;;;5029632;28;20048;-61
2022/08/19 13:13:02;;;;;;;31.27;26.95;;;27.70;58.50;;;;;;5026981;28;20037;-60
2022/08/19 13:15:30;;;;;;;3.38;1.67;;;27.50;58.90;;;;;;5029758;28;20032;-61
2022/08/19 13:17:57;;;;;;;4.43;2.45;;;27.40;60.50;;;;;;5021450;28;20515;-58
2022/08/19 13:20:24;;;;;;;1.75;1.60;;;27.50;60.20;;;;;;5025622;28;20109;-59
2022/08/19 13:22:50;;;;;;;2.92;1.48;;;27.60;61.70;;;;;;5021581;28;20037;-57
2022/08/19 13:25:18;;;;;;;2.97;1.50;;;27.70;58.70;;;;;;5020929;28;20053;-57
2022/08/19 13:27:44;;;;;;;5.20;1.75;;;27.80;58.60;;;;;;5030128;28;20021;-58
2022/08/19 13:33:11;;;;;;;2.88;1.30;;;27.60;58.60;;;;;;5032761;28;20116;-58
2022/08/19 13:35:56;;;;;;;2.67;1.50;;;27.50;59.10;;;;;;5024702;28;20404;-55
2022/08/19 13:38:23;;;;;;;3.45;2.05;;;27.50;60.00;;;;;;5025902;28;20032;-58
2022/08/19 13:40:51;;;;;;;3.00;1.95;;;27.50;59.30;;;;;;5033669;28;20520;-57
2022/08/19 13:43:19;;;;;;;2.70;1.98;;;27.30;59.60;;;;;;5034720;28;20053;-57
2022/08/19 13:45:45;;;;;;;1.90;1.70;;;27.20;60.40;;;;;;5034774;28;20056;-55
2022/08/19 13:48:12;;;;;;;1.83;1.60;;;27.10;60.40;;;;;;5034735;28;20068;-57
2022/08/19 13:50:43;;;;;;;3.70;2.05;;;27.40;60.50;;;;;;5033218;28;20646;-58
2022/08/19 13:53:10;;;;;;;2.58;1.80;;;27.70;59.50;;;;;;5017612;28;20495;-59
2022/08/19 13:55:41;;;;;;;3.95;2.10;;;28.20;58.20;;;;;;5028197;28;20488;-58
2022/08/19 13:58:07;;;;;;;4.95;1.85;;;28.60;57.70;;;;;;5018437;28;20404;-59
2022/08/19 14:00:41;;;;;;;3.20;1.55;;;29.20;56.70;;;;;;5024545;28;20049;-58
2022/08/19 14:03:07;;;;;;;2.30;1.30;;;30.10;55.40;;;;;;5022849;28;20503;-58
2022/08/19 14:05:33;;;;;;;1.20;1.10;;;31.00;53.20;;;;;;5034131;28;20037;-57
2022/08/19 14:07:59;;;;;;;2.22;1.30;;;30.80;64.70;;;;;;5034421;28;20276;-57
2022/08/19 14:10:27;;;;;;;4.97;1.48;;;30.30;65.10;;;;;;5033760;28;20499;-59
2022/08/19 14:12:55;;;;;;;3.97;1.80;;;29.30;65.80;;;;;;5032591;28;20029;-55
2022/08/19 14:15:22;;;;;;;1.50;1.02;;;29.00;58.50;;;;;;5034143;28;20500;-56
2022/08/19 14:17:48;;;;;;;3.08;1.65;;;28.30;60.00;;;;;;5033631;28;20033;-61
2022/08/19 14:20:15;;;;;;;1.67;1.52;;;28.00;56.70;;;;;;5033483;28;20013;-58
2022/08/19 14:22:42;;;;;;;2.92;1.38;;;28.10;67.90;;;;;;5032485;28;20040;-60
2022/08/19 14:25:10;;;;;;;6.72;1.25;;;28.10;69.40;;;;;;5034005;28;20049;-57
2022/08/19 14:27:37;;;;;;;1.25;0.80;;;28.60;70.60;;;;;;5032337;28;20530;-55
2022/08/19 14:30:08;;;;;;;2.50;0.80;;;29.00;67.60;;;;;;5033591;28;20053;-56
2022/08/19 14:32:35;;;;;;;1.25;1.15;;;;;;;;;;5031990;28;20075;-59
2022/08/19 14:35:02;;;;;;;3.45;1.02;;;31.30;51.90;;;;;;5034108;28;20048;-59
2022/08/19 14:37:27;;;;;;;5.15;1.25;;;31.70;60.30;;;;;;5031940;28;20021;-58
2022/08/19 14:39:53;;;;;;;2.17;1.00;;;;;;;;;;5033588;28;20076;-58
2022/08/19 14:42:20;;;;;;;1.27;1.00;;;32.70;57.10;;;;;;5033273;28;20033;-59
2022/08/19 14:44:45;;;;;;;2.17;1.00;;;32.50;57.10;;;;;;5033334;28;20025;-57
2022/08/19 14:47:11;;;;;;;1.23;1.07;;;32.00;56.20;;;;;;5033067;28;20025;-59
2022/08/19 14:49:39;;;;;;;1.30;0.93;;;32.70;56.80;;;;;;5031815;28;20075;-59
2022/08/19 14:52:05;;;;;;;1.85;0.80;;;33.10;53.80;;;;;;5031812;28;20033;-59
2022/08/19 14:54:31;;;;;;;3.70;0.90;;;33.50;42.00;;;;;;5032622;28;20029;-59
2022/08/19 14:56:57;;;;;;;1.42;0.70;;;34.40;41.70;;;;;;5032990;28;20033;-59
2022/08/19 14:59:23;;;;;;;3.97;1.00;;;34.90;52.20;;;;;;5031776;28;20018;-60
2022/08/19 15:01:49;;;;;;;;;;;35.00;40.70;;;;;;5032685;28;20487;-60
2022/08/19 15:04:15;;;;;;;0.82;0.63;;;;;;;;;;5032608;28;19915;-60
2022/08/19 15:06:42;;;;;;;;;;;;;;;;;;5033439;28;20040;-60
2022/08/19 15:09:08;;;;;;;3.25;0.90;;;;;;;;;;5032783;28;19909;-60
2022/08/19 15:11:34;;;;;;;1.65;1.00;;;;;;;;;;5030826;28;20035;-61
2022/08/19 15:14:01;;;;;;;;;;;;;;;;;;5030071;28;20494;-58
2022/08/19 15:16:27;;;;;;;2.25;1.15;;;;;;;;;;5033068;28;19905;-58
2022/08/19 15:18:55;;;;;;;2.85;1.13;;;;;;;;;;5031443;28;20399;-58
2022/08/19 15:21:22;;;;;;;1.10;1.00;;;;;;;;;;5020002;28;20754;-58
2022/08/19 15:23:49;;;;;;;1.63;0.90;;;;;;;;;;5031313;28;20026;-57
2022/08/19 15:26:16;;;;;;;3.33;1.42;;;;;;;;;;5032231;28;20072;-57
2022/08/19 15:28:42;;;;;;;5.82;2.03;;;;;;;;;;5032755;28;20091;-57
2022/08/19 15:31:08;;;;;;;4.30;1.40;;;;;;;;;;5031449;28;20036;-59
2022/08/19 15:33:39;;;;;;;5.10;1.35;;;;;;;;;;5027784;28;20030;-61
2022/08/19 15:36:05;;;;;;;1.38;1.08;;;;;;;;;;5032362;28;20399;-61
2022/08/19 15:38:33;;;;;;;1.73;1.35;;;17.70;52.50;;;;;;5023257;28;20026;-61
2022/08/19 15:43:48;;;;;;;4.63;0.90;;;;;;;;;;5032348;28;20125;-59
2022/08/19 15:46:20;;;;;;;1.00;0.73;;;36.70;35.60;;;;;;5032270;28;20060;-61
2022/08/19 15:48:46;;;;;;;2.25;1.17;;;36.10;37.90;;;;;;5031311;28;20033;-53
2022/08/19 15:51:11;;;;;;;0.98;0.82;;;35.40;38.50;;;;;;5031799;28;20037;-56
2022/08/19 15:53:39;;;;;;;1.98;1.08;;;34.80;39.70;;;;;;5032398;28;20043;-58
2022/08/19 15:56:05;;;;;;;4.78;1.42;;;34.00;40.90;;;;;;5032253;28;20045;-58
2022/08/19 16:06:47;;;;;;;5.75;1.40;;;;;;;;;;5032166;28;20036;-58
2022/08/19 16:09:14;;;;;;;3.00;1.60;;;;;;;;;;5030729;28;20036;-57
2022/08/19 16:11:41;;;;;;;4.00;1.30;;;;;;;;;;5031588;28;20061;-58
2022/08/19 16:14:09;;;;;;;1.58;1.17;;;;;;;;;;5032049;28;20041;-57
2022/08/19 16:16:36;;;;;;;2.67;1.20;;;;;;;;;;5031666;28;20018;-58
2022/08/19 16:19:05;;;;;;;3.83;1.25;;;;;;;;;;5031487;28;20032;-59
2022/08/19 16:21:33;;;;;;;3.20;1.52;;;;;;;;;;5031407;28;20022;-57
2022/08/19 16:24:00;;;;;;;4.22;1.35;;;;;;;;;;5031365;28;20029;-58
2022/08/19 16:26:29;;;;;;;2.22;1.13;;;;;;;;;;5031386;28;20376;-58
2022/08/19 16:28:56;;;;;;;4.38;1.48;;;;;;;;;;5031098;28;20098;-58
2022/08/19 16:31:22;;;;;;;3.25;1.42;;;;;;;;;;5023729;28;20030;-57
2022/08/19 16:33:48;;;;;;;2.08;1.83;;;;;;;;;;5050442;23;20030;-53
2022/08/19 16:36:14;;;;;;;4.43;1.05;;;;;;;;;;5031385;28;20102;-55
2022/08/19 16:38:40;;;;;;;3.13;1.30;;;;;;;;;;5030445;28;20041;-56
2022/08/19 16:41:06;;;;;;;3.10;1.30;;;;;;;;;;5031433;28;20029;-54
2022/08/19 16:43:33;;;;;;;5.10;1.65;;;;;;;;;;5031060;28;20033;-57
2022/08/19 16:46:00;;;;;;;3.80;1.17;;;;;;;;;;5011729;28;20053;-57
2022/08/19 16:48:28;;;;;;;4.20;1.25;;;;;;;;;;5016819;28;20497;-59
2022/08/19 16:50:54;;;;;;;2.13;1.40;;;;;;;;;;5019000;28;20025;-58
2022/08/19 16:53:23;;;;;;;6.28;1.92;;;;;;;;;;5026328;28;20710;-55
2022/08/19 16:55:52;;;;;;;3.97;1.40;;;;;;;;;;5013000;28;20095;-57
2022/08/19 16:58:18;;;;;;;1.88;1.45;;;;;;;;;;5021244;28;20052;-56
2022/08/19 17:00:44;;;;;;;10.55;6.78;;;;;;;;;;5010378;28;20073;-56
2022/08/19 17:03:11;;;;;;;2.53;1.77;;;;;;;;;;5010982;28;20029;-57
2022/08/19 17:05:47;;;;;;;2.95;1.20;;;;;;;;;;5011887;28;20034;-55
2022/08/19 17:08:15;;;;;;;1.40;1.30;;;;;;;;;;5012040;28;20029;-55
2022/08/19 17:10:41;;;;;;;5.75;1.83;;;;;;;;;;5011378;28;20380;-55
2022/08/19 17:13:07;;;;;;;3.10;1.70;;;;;;;;;;5010600;28;20057;-56
2022/08/19 17:15:34;;;;;;;1.55;1.45;;;;;;;;;;5011680;28;20033;-57
2022/08/19 17:18:01;;;;;;;1.42;1.00;;;;;;;;;;5011828;28;20036;-57
2022/08/19 17:20:28;;;;;;;1.70;1.20;;;;;;;;;;5011267;28;20024;-57
2022/08/19 17:22:55;;;;;;;3.40;1.83;;;;;;;;;;5011365;28;20033;-57
2022/08/19 17:25:22;;;;;;;6.20;1.00;;;;;;;;;;5011372;28;20392;-58
2022/08/19 17:27:48;;;;;;;5.45;1.17;;;;;;;;;;5011272;28;20026;-57
2022/08/19 17:30:14;;;;;;;3.03;1.52;;;;;;;;;;5010962;28;20400;-58
2022/08/19 17:32:41;;;;;;;2.75;1.77;;;;;;;;;;5010289;28;20137;-51
2022/08/19 17:35:07;;;;;;;4.43;1.88;;;;;;;;;;5011077;28;20030;-51
2022/08/19 17:37:34;;;;;;;5.07;1.10;;;;;;;;;;5025677;28;20392;-52
2022/08/19 17:40:05;;;;;;;2.92;1.58;;;;;;;;;;5000087;28;20447;-52
2022/08/19 17:42:31;;;;;;;4.15;1.83;;;;;;;;;;5002848;28;20030;-51
2022/08/19 17:44:58;;;;;;;2.22;1.50;;;;;;;;;;4998555;28;20065;-51
2022/08/19 17:47:24;;;;;;;;;;;;;;;;;;5006312;28;20038;-54
2022/08/19 17:49:50;;;;;;;2.85;1.30;;;;;;;;;;5007299;28;19929;-52
2022/08/19 17:52:17;;;;;;;;;;;;;;;;;;4998980;28;20041;-51
2022/08/19 17:54:43;;;;;;;1.63;1.50;;;;;;;;;;5007263;28;19917;-52
2022/08/19 17:57:09;;;;;;;3.05;1.08;;;;;;;;;;5002617;28;20088;-52
2022/08/19 17:59:36;;;;;;;4.25;1.80;;;;;;;;;;5002121;28;20061;-54
2022/08/19 18:02:02;;;;;;;;;;;;;;;;;;5004484;28;20389;-52
2022/08/19 18:04:28;;;;;;;1.33;1.23;;;;;;;;;;5005237;28;20020;-52
2022/08/19 18:06:54;;;;;;;8.85;6.95;;;;;;;;;;5005397;28;20108;-55
2022/08/19 18:09:21;;;;;;;2.88;1.95;;;;;;;;;;5004835;28;20034;-53
2022/08/19 18:11:47;;;;;;;1.58;1.30;;;;;;;;;;5004220;28;20113;-52
2022/08/19 18:14:14;;;;;;;6.18;1.92;;;;;;;;;;5008980;28;20061;-54
2022/08/19 18:16:40;;;;;;;4.25;1.63;;;;;;;;;;5007060;28;20034;-51
2022/08/19 18:19:06;;;;;;;2.30;1.40;;;;;;;;;;5006077;28;20539;-53
2022/08/19 18:21:34;;;;;;;4.13;1.65;;;;;;;;;;5005645;28;20381;-52
2022/08/19 18:24:00;;;;;;;5.95;1.88;;;;;;;;;;5008408;28;20069;-52
2022/08/19 18:26:28;;;;;;;4.03;1.90;;;;;;;;;;5008452;28;20064;-52
2022/08/19 18:28:54;;;;;;;4.57;1.98;;;;;;;;;;5008096;28;20034;-52
2022/08/19 18:31:22;;;;;;;5.60;2.88;;;;;;;;;;5012319;28;20033;-52
2022/08/19 18:33:51;;;;;;;4.13;1.70;;;;;;;;;;5008469;28;20053;-52
2022/08/19 18:36:17;;;;;;;5.22;2.03;;;;;;;;;;5009226;28;20044;-52
2022/08/19 18:49:42;;;;;;;7.93;2.60;;;;;;;;;;5005165;28;20040;-51
2022/08/19 18:52:08;;;;;;;3.67;2.50;;;;;;;;;;5008204;28;20034;-52
2022/08/19 18:54:34;;;;;;;9.73;2.45;;;;;;;;;;4995209;28;20316;-51
2022/08/19 18:57:00;;;;;;;10.20;3.08;;;;;;;;;;5012562;28;20022;-52
2022/08/19 18:59:27;;;;;;;8.75;3.45;;;;;;;;;;5013345;28;20034;-52
2022/08/19 19:01:55;;;;;;;3.47;3.17;;;;;;;;;;5028970;28;20542;-52
2022/08/19 19:04:24;;;;;;;6.95;2.78;;;;;;;;;;5013633;28;20534;-51
2022/08/19 19:06:50;;;;;;;6.80;3.20;;;;;;;;;;5013736;28;20480;-52
2022/08/19 19:09:18;;;;;;;7.00;3.05;;;;;;;;;;5013697;28;20560;-52
2022/08/19 19:11:47;;;;;;;7.28;3.28;;;;;;;;;;5013447;28;20022;-51
2022/08/19 19:14:14;;;;;;;6.10;3.10;;;;;;;;;;5000799;28;20052;-52
2022/08/19 19:16:44;;;;;;;6.95;3.28;;;;;;;;;;5012455;28;20443;-52
2022/08/19 19:19:13;;;;;;;5.43;3.28;;;;;;;;;;5008764;28;20092;-54
2022/08/19 19:21:44;;;;;;;6.15;3.75;;;;;;;;;;5011505;28;20026;-52
2022/08/19 19:24:12;;;;;;;6.50;3.53;;;;;;;;;;5010193;28;20045;-52
2022/08/19 19:26:38;;;;;;;6.20;4.25;;;;;;;;;;5008636;28;20113;-53
2022/08/19 19:29:05;;;;;;;5.43;3.73;;;;;;;;;;5003955;28;20501;-51
2022/08/19 19:31:32;;;;;;;10.65;4.18;;;;;;;;;;5005001;28;20270;-52
2022/08/19 19:33:58;;;;;;;14.85;4.38;;;;;;;;;;5010367;28;20133;-51
2022/08/19 19:36:25;;;;;;;6.43;4.07;;;;;;;;;;5004212;28;20018;-52
2022/08/19 19:38:51;;;;;;;5.20;3.60;;;;;;;;;;5007843;28;20037;-51
2022/08/19 19:41:22;;;;;;;9.88;4.45;;;;;;;;;;5007199;28;20376;-51
2022/08/19 19:43:49;;;;;;;8.18;4.35;;;;;;;;;;5011462;28;20038;-51
2022/08/19 19:46:16;;;;;;;7.22;3.80;;;;;;;;;;5009208;28;20064;-52
2022/08/19 19:48:43;;;;;;;8.10;5.00;;;;;;;;;;5010742;28;20034;-52
2022/08/19 19:51:09;;;;;;;8.38;4.00;;;;;;;;;;5006731;28;20026;-51
2022/08/19 19:53:35;;;;;;;21.95;5.30;;;;;;;;;;5007304;28;20037;-52
2022/08/19 19:56:03;;;;;;;11.45;4.35;;;;;;;;;;5002042;28;20014;-52
2022/08/19 19:58:30;;;;;;;9.90;5.40;;;;;;;;;;5006128;28;20037;-51
2022/08/19 20:00:57;;;;;;;5.78;5.03;;;;;;;;;;5012710;28;20595;-51
2022/08/19 20:03:24;;;;;;;7.60;4.75;;;;;;;;;;5010861;28;20405;-52
2022/08/19 20:05:51;;;;;;;6.75;4.97;;;;;;;;;;5015352;28;20038;-52
2022/08/19 20:11:03;;;;;;;6.10;5.28;;;;;;;;;;4999910;28;20061;-52
2022/08/19 20:13:30;;;;;;;5.10;4.35;;;;;;;;;;5005569;28;20169;-52
2022/08/19 20:15:56;;;;;;;9.30;4.18;;;;;;;;;;5004374;28;20087;-52
2022/08/19 20:18:23;;;;;;;6.95;4.70;;;;;;;;;;5007588;28;20030;-52
2022/08/19 20:20:50;;;;;;;7.38;5.15;;;;;;;;;;5009319;28;20028;-53
2022/08/19 20:23:20;;;;;;;6.47;4.47;;;;;;;;;;5006141;28;20551;-54
2022/08/19 20:25:46;;;;;;;8.27;5.15;;;;;;;;;;5010546;28;20025;-52
2022/08/19 20:28:13;;;;;;;5.60;4.88;;;;;;;;;;5005953;28;20036;-52
2022/08/19 20:30:39;;;;;;;5.28;4.75;;;;;;;;;;5006068;28;20022;-51
2022/08/19 20:33:05;;;;;;;8.50;7.25;;;;;;;;;;5007076;28;20104;-51
2022/08/19 20:35:32;;;;;;;7.72;5.38;;;;;;;;;;5007053;28;20040;-59
2022/08/19 20:37:59;;;;;;;;;;;;;;;;;;5009222;28;20028;-59
2022/08/19 20:40:28;;;;;;;7.25;5.18;;;;;;;;;;5011055;28;20000;-59
2022/08/19 20:42:54;;;;;;;8.02;5.18;;;;;;;;;;5012318;28;20053;-59
2022/08/19 20:45:21;;;;;;;6.55;5.90;;;;;;;;;;5008872;28;20032;-60
2022/08/19 20:47:48;;;;;;;10.13;5.60;;;;;;;;;;5005524;28;20049;-59
2022/08/19 20:50:15;;;;;;;6.05;5.18;;;;;;;;;;5009648;28;20029;-59
2022/08/19 20:52:41;;;;;;;;;;;;;;;;;;5009193;28;20025;-57
2022/08/19 20:55:07;;;;;;;10.65;5.88;;;;;;;;;;5008141;28;20318;-59
2022/08/19 20:57:33;;;;;;;8.98;6.60;;;;;;;;;;5002293;28;20030;-58
2022/08/19 20:59:59;;;;;;;9.23;5.43;;;;;;;;;;5006536;28;20030;-59
2022/08/19 21:02:26;;;;;;;;;;;;;;;;;;5008950;28;20026;-57
2022/08/19 21:04:52;;;;;;;7.25;5.85;;;;;;;;;;5005569;28;19909;-59
2022/08/19 21:07:18;;;;;;;9.00;6.47;;;;;;;;;;5001582;28;20026;-60
2022/08/19 21:09:44;;;;;;;8.47;7.03;;;;;;;;;;4994727;28;20280;-58
2022/08/19 21:12:11;;;;;;;6.50;5.47;;;;;;;;;;4994219;28;20069;-59
2022/08/19 21:14:42;;;;;;;9.18;7.15;;;;;;;;;;5009436;28;20030;-59
2022/08/19 21:17:08;;;;;;;7.95;7.10;;;;;;;;;;5010556;28;20096;-59
2022/08/19 21:19:35;;;;;;;9.27;6.82;;;;;;;;;;5010145;28;20481;-57
2022/08/19 21:22:01;;;;;;;7.28;6.35;;;;;;;;;;5011892;28;20121;-58
2022/08/19 21:24:27;;;;;;;12.52;7.05;;;;;;;;;;5011542;28;20030;-58
2022/08/19 21:26:53;;;;;;;11.13;7.30;;;;;;;;;;5011236;28;20037;-57
2022/08/19 21:29:20;;;;;;;14.15;7.70;;;;;;;;;;5011321;28;20325;-58
2022/08/19 21:31:46;;;;;;;7.90;7.07;;;;;;;;;;5010206;28;20030;-59
2022/08/19 21:34:12;;;;;;;9.32;7.57;;;;;;;;;;5025124;28;20492;-58
2022/08/19 21:36:38;;;;;;;10.37;7.20;;;;;;;;;;5011327;28;20493;-58
2022/08/19 21:39:04;;;;;;;7.80;6.87;;;;;;;;;;5011159;28;20022;-59
2022/08/19 21:41:30;;;;;;;8.43;6.75;;;;;;;;;;5010947;28;20069;-60
2022/08/19 21:43:56;;;;;;;15.73;7.38;;;;;;;;;;5011075;28;20060;-60
2022/08/19 21:46:22;;;;;;;9.50;7.18;;;;;;;;;;5011341;28;20025;-60
2022/08/19 21:48:48;;;;;;;8.48;7.30;;;;;;;;;;5029406;28;20049;-60
2022/08/19 21:51:14;;;;;;;10.70;8.30;;;;;;;;;;5014737;28;20029;-60
2022/08/19 21:53:41;;;;;;;16.77;8.60;;;;;;;;;;5014298;28;20782;-59
2022/08/19 21:56:07;;;;;;;9.27;7.43;;;;;;;;;;5014263;28;20253;-60
2022/08/19 21:58:35;;;;;;;13.05;8.70;;;;;;;;;;5014989;28;20538;-58
2022/08/19 22:01:04;;;;;;;9.48;8.52;;;;;;;;;;5014379;28;20464;-60
2022/08/19 22:03:31;;;;;;;9.77;7.63;;;;;;;;;;5014503;28;20101;-59
2022/08/19 22:05:57;;;;;;;8.63;7.75;;;;;;;;;;5014441;28;20088;-60
2022/08/19 22:08:23;;;;;;;9.70;8.23;;;;;;;;;;5014787;28;20030;-59
2022/08/19 22:10:50;;;;;;;10.68;8.57;;;;;;;;;;5014174;28;20037;-57
2022/08/19 22:13:20;;;;;;;11.63;8.30;;;;;;;;;;5014386;28;20100;-59
2022/08/19 22:15:47;;;;;;;11.50;7.90;;;;;;;;;;5014328;28;20026;-58
2022/08/19 22:18:16;;;;;;;8.63;7.72;;;;;;;;;;5013971;28;20041;-59
2022/08/19 22:20:42;;;;;;;10.98;7.85;;;;;;;;;;5014363;28;20057;-59
2022/08/19 22:23:08;;;;;;;10.57;8.17;;;;;;;;;;5014332;28;20399;-59
2022/08/19 22:25:36;;;;;;;9.20;7.90;;;;;;;;;;5014181;28;20025;-57
2022/08/19 22:28:04;;;;;;;9.50;8.27;;;;;;;;;;5016983;28;20064;-57
2022/08/19 22:30:30;;;;;;;10.00;8.63;;;;;;;;;;5027211;28;20092;-59
2022/08/19 22:32:59;;;;;;;9.40;8.30;;;;;;;;;;5025151;28;20025;-59
2022/08/19 22:35:28;;;;;;;8.82;7.68;;;;;;;;;;5052101;22;20132;-60
2022/08/19 22:37:54;;;;;;;9.70;8.70;;;;;;;;;;5033427;28;20048;-59
2022/08/19 22:40:20;;;;;;;10.95;8.65;;;;;;;;;;5033852;28;20360;-60
2022/08/19 22:42:47;;;;;;;9.67;8.27;;;;;;;;;;5034074;28;20079;-60
2022/08/19 22:45:16;;;;;;;10.27;8.38;;;;;;;;;;5034042;28;20260;-62
2022/08/19 22:47:42;;;;;;;11.05;9.00;;;;;;;;;;5033164;28;20431;-61
2022/08/19 22:50:08;;;;;;;10.47;9.30;;;;;;;;;;5033600;28;20040;-58
2022/08/19 22:52:35;;;;;;;10.55;9.20;;;;;;;;;;5033625;28;20258;-59
2022/08/19 22:55:02;;;;;;;9.33;8.10;;;;;;;;;;5032213;28;20509;-59
2022/08/19 22:57:28;;;;;;;;;;;;;;;;;;5033886;28;20259;-61
2022/08/19 22:59:56;;;;;;;9.93;8.65;;;;;;;;;;5033288;28;20379;-61
2022/08/19 23:02:24;;;;;;;14.05;9.65;;;;;;;;;;5033509;28;20506;-60
2022/08/19 23:04:51;;;;;;;13.45;9.02;;;;;;;;;;5033389;28;20025;-61
2022/08/19 23:07:17;;;;;;;11.32;9.55;;;;;;;;;;5033398;28;20112;-61
2022/08/19 23:09:43;;;;;;;9.85;8.90;;;;;;;;;;5032898;28;20575;-60
2022/08/19 23:12:12;;;;;;;11.97;9.37;;;;;;;;;;5033169;28;20037;-59
2022/08/19 23:14:39;;;;;;;10.23;8.75;;;;;;;;;;5033058;28;20173;-60
2022/08/19 23:17:05;;;;;;;17.05;10.75;;;;;;;;;;5033135;28;20030;-61
2022/08/19 23:19:31;;;;;;;12.03;8.80;;;;;;;;;;5033364;28;20067;-59
2022/08/19 23:21:58;;;;;;;12.05;8.85;;;;;;;;;;5032673;28;20083;-59
2022/08/19 23:24:24;;;;;;;10.10;8.98;;;;;;;;;;5033106;28;20033;-61
2022/08/19 23:32:20;;;;;;;13.55;9.00;;;;;;;;;;5032361;28;20123;-60
2022/08/19 23:34:46;;;;;;;10.45;9.35;;;;;;;;;;5032572;28;20109;-60
2022/08/19 23:37:12;;;;;;;11.57;9.25;;;;;;;;;;5032733;28;20034;-60
2022/08/19 23:39:38;;;;;;;12.23;10.93;;;;;;;;;;5032464;28;20035;-59
2022/08/19 23:42:10;;;;;;;16.47;10.07;;;;;;;;;;5032411;28;20355;-61
2022/08/19 23:44:36;;;;;;;11.63;9.20;;;;;;;;;;5032574;28;20025;-60
2022/08/19 23:47:02;;;;;;;11.43;10.23;;;;;;;;;;5032747;28;20064;-61
2022/08/19 23:49:28;;;;;;;11.60;10.30;;;;;;;;;;5032093;28;20303;-59
2022/08/19 23:51:54;;;;;;;18.97;10.10;;;;;;;;;;5032732;28;20075;-59
2022/08/19 23:54:21;;;;;;;13.90;11.07;;;;;;;;;;5032083;28;20029;-61
2022/08/19 23:56:47;;;;;;;15.50;11.10;;;;;;;;;;5032122;28;20064;-58
2022/08/19 23:59:13;;;;;;;11.53;10.43;;;;;;;;;;5032285;28;20021;-61
